Time;durP1;ratioP1;P1;durP2;ratioP2;P2;SDS_P1;SDS_P2;PMS_P1;PMS_P2;Temp;Humidity;BMP_temperature;BMP_pressure;BME280_temperature;BME280_humidity;BME280_pressure;Samples;Min_cycle;Max_cycle;Signal;HPM_P1;HPM_P2
2023/09/07 00:01:26;;;;;;;2.60;2.37;;;23.80;61.90;;;;;;5050828;28;20496;-69
2023/09/07 00:03:52;;;;;;;5.30;2.33;;;23.80;61.80;;;;;;5050756;28;20190;-68
2023/09/07 00:06:17;;;;;;;2.93;2.43;;;23.80;61.80;;;;;;5050503;28;20171;-69
2023/09/07 00:08:44;;;;;;;2.90;2.57;;;23.80;61.80;;;;;;5050391;28;20218;-69
2023/09/07 00:11:09;;;;;;;2.60;2.20;;;23.80;61.80;;;;;;5050481;28;20263;-68
2023/09/07 00:13:35;;;;;;;3.63;2.23;;;23.80;62.60;;;;;;5050334;28;20539;-69
2023/09/07 00:16:02;;;;;;;3.17;2.87;;;23.80;61.80;;;;;;5050404;28;20206;-68
2023/09/07 00:18:29;;;;;;;2.60;2.20;;;23.80;61.80;;;;;;5050382;28;20293;-68
2023/09/07 00:20:54;;;;;;;2.40;2.20;;;23.80;61.80;;;;;;5050392;28;20420;-68
2023/09/07 00:23:20;;;;;;;3.47;2.43;;;23.80;61.80;;;;;;5050902;28;20413;-69
2023/09/07 00:25:46;;;;;;;3.40;2.27;;;23.80;61.80;;;;;;5050341;28;20210;-69
2023/09/07 00:28:12;;;;;;;2.77;2.20;;;23.80;61.80;;;;;;5050258;28;20893;-69
2023/09/07 00:30:38;;;;;;;3.00;2.20;;;23.80;61.80;;;;;;5050265;28;20175;-69
2023/09/07 00:33:03;;;;;;;3.87;2.17;;;23.80;61.80;;;;;;5050208;28;20670;-68
2023/09/07 00:35:29;;;;;;;3.10;2.20;;;23.80;61.80;;;;;;5050212;28;20644;-69
2023/09/07 00:37:55;;;;;;;2.63;2.40;;;23.80;61.80;;;;;;5050368;28;20187;-69
2023/09/07 00:40:22;;;;;;;2.63;2.17;;;23.80;61.80;;;;;;5053853;28;20167;-69
2023/09/07 00:42:47;;;;;;;2.67;2.03;;;23.80;61.80;;;;;;5053811;28;20232;-69
2023/09/07 00:45:13;;;;;;;3.17;2.17;;;23.80;61.80;;;;;;5054058;28;20421;-68
2023/09/07 00:47:39;;;;;;;2.20;1.70;;;23.80;61.80;;;;;;5053384;28;20175;-69
2023/09/07 00:50:05;;;;;;;2.20;2.00;;;23.80;61.80;;;;;;5053544;28;20202;-69
2023/09/07 00:52:32;;;;;;;2.23;1.93;;;23.80;61.80;;;;;;5053448;28;20210;-67
2023/09/07 00:54:59;;;;;;;2.40;2.00;;;23.80;61.80;;;;;;5053390;28;20413;-69
2023/09/07 00:57:25;;;;;;;3.23;2.80;;;23.80;61.80;;;;;;5053551;28;20421;-68
2023/09/07 00:59:50;;;;;;;3.10;2.40;;;23.80;61.70;;;;;;5053405;28;20426;-70
2023/09/07 01:02:16;;;;;;;2.10;1.90;;;23.80;61.80;;;;;;5053493;28;20206;-68
2023/09/07 01:04:42;;;;;;;2.53;2.03;;;23.80;61.70;;;;;;5035543;28;20237;-69
2023/09/07 01:07:16;;;;;;;3.57;2.20;;;23.80;62.60;;;;;;5053351;28;20175;-68
2023/09/07 01:09:43;;;;;;;4.27;1.80;;;23.80;61.70;;;;;;5053359;28;20437;-69
2023/09/07 01:12:14;;;;;;;2.00;1.77;;;23.80;61.70;;;;;;5053214;28;20493;-68
2023/09/07 01:14:40;;;;;;;2.10;1.90;;;23.80;61.70;;;;;;5053370;28;20437;-70
2023/09/07 01:17:08;;;;;;;2.00;1.80;;;23.80;61.70;;;;;;5053186;28;20445;-69
2023/09/07 01:19:34;;;;;;;2.40;2.20;;;23.80;62.10;;;;;;5053059;28;20191;-68
2023/09/07 01:22:00;;;;;;;4.27;2.40;;;23.80;61.70;;;;;;5053365;28;20429;-69
2023/09/07 01:24:29;;;;;;;2.07;1.87;;;23.80;61.70;;;;;;5035054;28;20191;-69
2023/09/07 01:26:56;;;;;;;3.10;2.30;;;23.80;61.80;;;;;;5053040;28;20475;-68
2023/09/07 01:29:22;;;;;;;2.90;1.90;;;23.80;61.70;;;;;;5052910;28;20433;-68
2023/09/07 01:31:48;;;;;;;2.40;2.10;;;23.80;61.70;;;;;;5052838;28;20488;-69
2023/09/07 01:34:14;;;;;;;3.40;2.23;;;23.80;61.70;;;;;;5052875;28;20171;-69
2023/09/07 01:36:40;;;;;;;3.30;2.00;;;23.80;61.70;;;;;;5052823;28;20179;-69
2023/09/07 01:39:08;;;;;;;2.33;1.90;;;23.80;61.70;;;;;;5052717;28;20960;-69
2023/09/07 01:41:34;;;;;;;2.70;2.20;;;23.80;61.70;;;;;;5052754;28;20178;-68
2023/09/07 01:43:59;;;;;;;2.63;2.43;;;23.80;61.70;;;;;;5052981;28;20413;-69
2023/09/07 01:46:25;;;;;;;2.17;1.87;;;23.80;61.70;;;;;;5052749;28;20258;-69
2023/09/07 01:48:50;;;;;;;2.93;2.17;;;23.80;61.70;;;;;;5052477;28;20222;-69
2023/09/07 01:51:16;;;;;;;2.97;2.27;;;23.80;61.80;;;;;;5051510;28;20159;-69
2023/09/07 01:53:41;;;;;;;2.27;1.80;;;23.80;61.70;;;;;;5052401;28;20195;-69
2023/09/07 01:56:07;;;;;;;2.10;1.90;;;23.80;61.70;;;;;;5052467;28;20175;-69
2023/09/07 01:58:33;;;;;;;1.53;1.43;;;23.80;61.80;;;;;;5052345;28;20337;-70
2023/09/07 02:01:00;;;;;;;2.63;1.97;;;23.80;61.70;;;;;;5052696;28;20220;-69
2023/09/07 02:03:26;;;;;;;2.97;1.93;;;23.80;61.70;;;;;;5052273;28;20438;-69
2023/09/07 02:05:55;;;;;;;3.67;2.33;;;23.80;61.70;;;;;;5052252;28;20416;-69
2023/09/07 02:08:20;;;;;;;2.20;2.00;;;23.80;61.70;;;;;;5052408;28;20522;-70
2023/09/07 02:10:46;;;;;;;2.90;2.10;;;23.80;61.70;;;;;;5052139;28;20555;-68
2023/09/07 02:13:12;;;;;;;2.33;1.70;;;23.80;61.70;;;;;;5052074;28;20555;-69
2023/09/07 02:15:38;;;;;;;2.37;1.90;;;23.80;61.70;;;;;;5052008;28;20236;-69
2023/09/07 02:18:05;;;;;;;2.33;2.10;;;23.80;62.50;;;;;;5052187;28;20407;-68
2023/09/07 02:20:31;;;;;;;2.30;2.10;;;23.80;61.70;;;;;;5052208;28;20449;-69
2023/09/07 02:22:57;;;;;;;1.80;1.70;;;23.80;61.70;;;;;;5051950;28;20413;-69
2023/09/07 02:25:23;;;;;;;2.60;1.90;;;23.80;61.70;;;;;;5051924;28;20405;-69
2023/09/07 02:27:49;;;;;;;2.07;1.80;;;23.80;61.70;;;;;;5051750;28;20261;-69
2023/09/07 02:30:14;;;;;;;2.70;2.50;;;23.80;61.70;;;;;;5052375;28;20193;-69
2023/09/07 02:32:43;;;;;;;3.70;2.70;;;23.80;61.70;;;;;;5051727;28;20210;-69
2023/09/07 02:35:09;;;;;;;2.80;2.13;;;23.80;61.70;;;;;;5051699;28;20167;-68
2023/09/07 02:37:38;;;;;;;2.00;1.77;;;23.80;61.70;;;;;;5051576;28;20767;-69
2023/09/07 02:40:10;;;;;;;1.90;1.70;;;23.80;61.70;;;;;;5033801;28;20453;-68
2023/09/07 02:42:37;;;;;;;2.20;2.00;;;23.80;62.50;;;;;;5051580;28;20878;-68
2023/09/07 02:45:02;;;;;;;1.87;1.67;;;23.80;61.70;;;;;;5051568;28;20452;-69
2023/09/07 02:47:28;;;;;;;4.30;2.20;;;23.80;61.70;;;;;;5051741;28;20183;-69
2023/09/07 02:49:54;;;;;;;3.03;2.20;;;23.80;61.70;;;;;;5051286;28;20217;-69
2023/09/07 02:52:19;;;;;;;2.70;2.07;;;23.80;61.70;;;;;;5051307;28;20213;-69
2023/09/07 02:54:45;;;;;;;2.90;2.03;;;23.80;61.70;;;;;;5051379;28;20182;-69
2023/09/07 02:57:10;;;;;;;2.50;2.13;;;23.80;61.70;;;;;;5051306;28;20175;-69
2023/09/07 02:59:36;;;;;;;1.93;1.73;;;23.80;61.70;;;;;;5051203;28;20194;-69
2023/09/07 03:02:02;;;;;;;2.00;1.67;;;23.80;61.70;;;;;;5050994;28;20631;-69
2023/09/07 03:04:27;;;;;;;2.47;1.87;;;23.80;61.70;;;;;;5051223;28;20258;-69
2023/09/07 03:06:53;;;;;;;2.50;1.90;;;23.80;61.70;;;;;;5051435;28;20224;-69
2023/09/07 03:09:18;;;;;;;2.40;1.90;;;23.80;61.70;;;;;;5033095;28;20230;-68
2023/09/07 03:11:44;;;;;;;2.03;1.70;;;23.80;61.70;;;;;;5050974;28;20244;-69
2023/09/07 03:14:10;;;;;;;2.03;1.80;;;23.80;61.70;;;;;;5051097;28;20186;-69
2023/09/07 03:16:35;;;;;;;2.07;1.80;;;23.80;61.70;;;;;;5051066;28;20699;-69
2023/09/07 03:19:01;;;;;;;2.33;1.80;;;23.80;61.70;;;;;;5050952;28;20203;-69
2023/09/07 03:21:29;;;;;;;2.40;2.00;;;23.80;61.70;;;;;;5050916;28;20175;-68
2023/09/07 03:23:56;;;;;;;1.63;1.53;;;23.80;61.70;;;;;;5050895;28;20241;-68
2023/09/07 03:26:21;;;;;;;3.00;2.40;;;23.80;61.70;;;;;;5050900;28;20425;-69
2023/09/07 03:28:47;;;;;;;1.93;1.73;;;23.80;61.70;;;;;;5050841;28;20430;-69
2023/09/07 03:31:12;;;;;;;2.03;1.70;;;23.80;61.70;;;;;;5050847;28;20542;-69
2023/09/07 03:33:38;;;;;;;2.13;1.73;;;23.80;61.70;;;;;;5050712;28;20198;-69
2023/09/07 03:36:04;;;;;;;2.00;1.80;;;23.80;61.70;;;;;;5050859;28;20211;-69
2023/09/07 03:38:30;;;;;;;2.10;1.90;;;23.80;61.70;;;;;;5050696;28;20236;-69
2023/09/07 03:40:55;;;;;;;2.40;2.17;;;23.80;61.70;;;;;;5050773;28;20500;-69
2023/09/07 03:43:21;;;;;;;1.70;1.60;;;23.80;61.80;;;;;;5050705;28;20209;-69
2023/09/07 03:45:46;;;;;;;2.43;1.87;;;23.80;61.70;;;;;;5032715;28;20191;-69
2023/09/07 03:48:12;;;;;;;2.17;1.97;;;23.80;61.70;;;;;;5050595;28;20225;-69
2023/09/07 03:50:38;;;;;;;2.07;1.87;;;23.80;61.70;;;;;;5050566;28;20281;-69
2023/09/07 03:53:03;;;;;;;1.90;1.70;;;23.80;61.70;;;;;;5032741;28;20211;-69
2023/09/07 03:55:29;;;;;;;1.83;1.60;;;23.80;61.70;;;;;;5050647;28;20175;-68
2023/09/07 03:57:54;;;;;;;1.97;1.70;;;23.80;61.70;;;;;;5050512;28;20197;-69
2023/09/07 04:00:20;;;;;;;1.87;1.50;;;23.80;61.70;;;;;;5050635;28;20701;-69
2023/09/07 04:02:46;;;;;;;2.20;2.00;;;23.80;61.70;;;;;;5050548;28;20206;-69
2023/09/07 04:05:12;;;;;;;1.90;1.70;;;23.80;61.70;;;;;;5050474;28;20414;-69
2023/09/07 04:07:38;;;;;;;1.90;1.80;;;23.80;61.70;;;;;;5050485;28;20225;-68
2023/09/07 04:10:04;;;;;;;1.67;1.50;;;23.80;61.70;;;;;;5050518;28;20203;-69
2023/09/07 04:12:31;;;;;;;2.27;1.67;;;23.80;61.70;;;;;;5050337;28;20457;-69
2023/09/07 04:14:56;;;;;;;1.77;1.50;;;23.80;61.70;;;;;;5054222;28;20412;-70
2023/09/07 04:17:22;;;;;;;2.23;1.70;;;23.80;61.70;;;;;;5054326;28;20891;-69
2023/09/07 04:19:47;;;;;;;1.70;1.57;;;23.80;61.70;;;;;;5054100;28;20197;-69
2023/09/07 04:22:13;;;;;;;2.10;1.90;;;23.80;61.70;;;;;;5054227;28;20193;-69
2023/09/07 04:24:39;;;;;;;1.87;1.67;;;23.80;61.70;;;;;;5054386;28;20179;-69
2023/09/07 04:27:04;;;;;;;2.27;1.87;;;23.80;62.60;;;;;;5054132;28;20599;-68
2023/09/07 04:29:30;;;;;;;1.93;1.73;;;23.80;61.70;;;;;;5054264;28;20203;-69
2023/09/07 04:31:56;;;;;;;1.60;1.50;;;23.80;61.70;;;;;;5053913;28;20241;-69
2023/09/07 04:34:22;;;;;;;2.20;1.60;;;23.80;61.80;;;;;;5036081;28;20240;-68
2023/09/07 04:36:48;;;;;;;2.00;1.53;;;23.80;61.70;;;;;;5053913;28;20845;-69
2023/09/07 04:39:14;;;;;;;4.30;2.10;;;23.80;61.70;;;;;;5053811;28;20516;-69
2023/09/07 04:41:40;;;;;;;2.77;2.00;;;23.80;61.70;;;;;;5053851;28;20182;-68
2023/09/07 04:44:06;;;;;;;1.97;1.77;;;23.80;61.70;;;;;;5053829;28;20167;-70
2023/09/07 04:46:31;;;;;;;2.00;1.80;;;23.80;61.70;;;;;;5053813;28;20420;-69
2023/09/07 04:48:57;;;;;;;2.10;1.70;;;23.80;61.70;;;;;;5053815;28;20297;-69
2023/09/07 04:51:23;;;;;;;1.90;1.70;;;23.80;61.70;;;;;;5053755;28;20179;-69
2023/09/07 04:53:49;;;;;;;1.80;1.50;;;23.80;61.70;;;;;;5053572;28;20209;-68
2023/09/07 04:56:16;;;;;;;2.17;1.70;;;23.80;61.70;;;;;;5053815;28;20414;-70
2023/09/07 04:58:41;;;;;;;1.70;1.50;;;23.80;61.70;;;;;;5053513;28;20199;-69
2023/09/07 05:01:12;;;;;;;4.20;2.30;;;23.80;61.70;;;;;;5035509;28;20430;-68
2023/09/07 05:03:39;;;;;;;2.30;2.10;;;23.80;61.70;;;;;;5053715;28;20248;-68
2023/09/07 05:06:05;;;;;;;3.00;1.87;;;23.80;61.70;;;;;;5053615;28;20823;-68
2023/09/07 05:08:31;;;;;;;1.70;1.53;;;23.80;61.70;;;;;;5053294;28;20440;-68
2023/09/07 05:11:06;;;;;;;3.00;2.23;;;23.80;61.70;;;;;;5035635;28;20418;-69
2023/09/07 05:13:32;;;;;;;1.90;1.63;;;23.80;61.70;;;;;;5053247;28;20198;-68
2023/09/07 05:15:59;;;;;;;2.37;1.73;;;23.80;61.70;;;;;;5053434;28;20435;-68
2023/09/07 05:18:25;;;;;;;2.00;1.60;;;23.80;61.70;;;;;;5053065;28;20231;-68
2023/09/07 05:20:51;;;;;;;2.60;1.90;;;23.80;61.70;;;;;;5053380;28;20448;-69
2023/09/07 05:23:19;;;;;;;2.23;1.50;;;23.80;61.70;;;;;;5053052;28;20171;-68
2023/09/07 05:25:52;;;;;;;2.00;1.60;;;23.80;61.70;;;;;;5052803;28;20776;-68
2023/09/07 05:28:18;;;;;;;3.63;1.70;;;23.80;61.70;;;;;;5052901;28;20437;-69
2023/09/07 05:30:44;;;;;;;1.80;1.50;;;23.80;61.80;;;;;;5052964;28;20429;-69
2023/09/07 05:33:11;;;;;;;2.60;1.83;;;23.80;61.80;;;;;;5052830;28;20456;-68
2023/09/07 05:35:37;;;;;;;2.20;2.00;;;23.80;61.80;;;;;;5052858;28;20168;-68
2023/09/07 05:38:04;;;;;;;2.47;1.90;;;23.80;61.80;;;;;;5053085;28;20795;-68
2023/09/07 05:40:33;;;;;;;1.70;1.57;;;23.80;61.80;;;;;;5035123;28;20914;-67
2023/09/07 05:42:59;;;;;;;2.00;1.43;;;23.80;61.80;;;;;;5052784;28;21007;-68
2023/09/07 05:45:25;;;;;;;2.27;1.70;;;23.80;61.70;;;;;;5052922;28;20483;-68
2023/09/07 05:47:50;;;;;;;1.73;1.60;;;23.80;61.80;;;;;;5052534;28;20500;-67
2023/09/07 05:50:16;;;;;;;2.33;1.70;;;23.80;61.80;;;;;;5052513;28;20198;-68
2023/09/07 05:52:42;;;;;;;2.37;2.17;;;23.80;61.80;;;;;;5052428;28;20211;-69
2023/09/07 05:55:07;;;;;;;2.00;1.80;;;23.80;61.80;;;;;;5052452;28;20226;-68
2023/09/07 05:57:33;;;;;;;1.70;1.50;;;23.80;61.80;;;;;;5052776;28;20585;-68
2023/09/07 05:59:59;;;;;;;1.67;1.57;;;23.80;61.80;;;;;;5052370;28;20174;-68
2023/09/07 06:02:24;;;;;;;2.13;1.87;;;23.80;61.80;;;;;;5052557;28;20321;-68
2023/09/07 06:04:50;;;;;;;1.60;1.43;;;23.80;61.80;;;;;;5052286;28;20183;-68
2023/09/07 06:07:16;;;;;;;1.80;1.70;;;23.80;61.80;;;;;;5052357;28;20665;-67
2023/09/07 06:09:41;;;;;;;1.53;1.43;;;23.80;61.80;;;;;;5052072;28;20206;-68
2023/09/07 06:12:07;;;;;;;1.50;1.40;;;23.80;61.80;;;;;;5052069;28;20289;-68
2023/09/07 06:14:33;;;;;;;1.60;1.30;;;23.80;61.80;;;;;;5052162;28;20167;-68
2023/09/07 06:16:58;;;;;;;2.03;1.83;;;23.80;61.90;;;;;;5051949;28;20241;-66
2023/09/07 06:19:24;;;;;;;2.50;2.03;;;23.80;61.90;;;;;;5051664;28;20203;-69
2023/09/07 06:21:49;;;;;;;1.93;1.50;;;23.80;61.90;;;;;;5051927;28;20179;-66
2023/09/07 06:24:15;;;;;;;1.87;1.77;;;23.80;61.90;;;;;;5051817;28;20228;-68
2023/09/07 06:26:42;;;;;;;2.00;1.70;;;23.80;61.90;;;;;;5051840;28;20210;-67
2023/09/07 06:29:08;;;;;;;2.30;1.77;;;23.80;61.90;;;;;;5033663;28;20209;-69
2023/09/07 06:31:33;;;;;;;2.07;1.87;;;23.80;61.90;;;;;;5051649;28;20417;-68
2023/09/07 06:33:59;;;;;;;2.07;1.77;;;23.80;61.90;;;;;;5051537;28;20214;-68
2023/09/07 06:36:25;;;;;;;2.03;1.83;;;23.80;61.90;;;;;;5033382;28;20627;-67
2023/09/07 06:38:50;;;;;;;1.60;1.50;;;23.80;61.90;;;;;;5051559;28;20609;-68
2023/09/07 06:41:16;;;;;;;1.87;1.53;;;23.80;61.90;;;;;;5051684;28;20175;-68
2023/09/07 06:43:42;;;;;;;2.70;2.20;;;23.80;61.90;;;;;;5051858;28;20179;-69
2023/09/07 06:46:08;;;;;;;2.00;1.60;;;23.80;61.90;;;;;;5051559;28;20294;-68
2023/09/07 06:48:35;;;;;;;1.93;1.60;;;23.80;61.90;;;;;;5051292;28;20203;-67
2023/09/07 06:51:04;;;;;;;1.90;1.50;;;23.80;61.90;;;;;;5051553;28;20417;-68
2023/09/07 06:53:30;;;;;;;2.13;1.50;;;23.80;61.90;;;;;;5051530;28;20825;-69
2023/09/07 06:56:03;;;;;;;2.73;1.90;;;23.80;61.90;;;;;;5051343;28;20413;-69
2023/09/07 06:58:29;;;;;;;2.03;1.43;;;23.80;61.90;;;;;;5051290;28;20433;-68
2023/09/07 07:01:01;;;;;;;2.17;1.87;;;23.80;61.90;;;;;;5051279;28;20489;-69
2023/09/07 07:03:28;;;;;;;2.43;2.23;;;23.80;61.90;;;;;;5051327;28;20405;-69
2023/09/07 07:05:57;;;;;;;2.33;1.53;;;23.80;62.00;;;;;;5051217;28;20435;-68
2023/09/07 07:08:23;;;;;;;1.77;1.57;;;23.80;61.90;;;;;;5051172;28;20444;-68
2023/09/07 07:10:49;;;;;;;1.83;1.60;;;23.80;62.00;;;;;;5051161;28;20453;-68
2023/09/07 07:13:15;;;;;;;2.53;1.60;;;23.80;61.90;;;;;;5033084;28;20453;-67
2023/09/07 07:15:41;;;;;;;2.10;1.90;;;23.90;62.00;;;;;;5051028;28;20178;-68
2023/09/07 07:18:10;;;;;;;1.63;1.53;;;23.80;61.90;;;;;;5050895;28;20267;-68
2023/09/07 07:20:38;;;;;;;1.70;1.60;;;23.80;61.90;;;;;;5051137;28;20478;-68
2023/09/07 07:23:04;;;;;;;1.70;1.60;;;23.90;62.00;;;;;;5050899;28;20467;-69
2023/09/07 07:25:33;;;;;;;1.80;1.70;;;23.80;61.90;;;;;;5050858;28;20422;-69
2023/09/07 07:27:59;;;;;;;4.13;2.13;;;23.90;62.00;;;;;;5050752;28;20436;-68
2023/09/07 07:30:29;;;;;;;1.90;1.60;;;23.90;62.00;;;;;;5050766;28;20422;-69
2023/09/07 07:32:54;;;;;;;2.03;1.73;;;23.90;62.00;;;;;;5050656;28;20480;-69
2023/09/07 07:35:20;;;;;;;2.13;1.57;;;23.90;62.10;;;;;;5032930;28;20497;-69
2023/09/07 07:37:46;;;;;;;2.00;1.80;;;23.80;61.90;;;;;;5050594;28;20183;-68
2023/09/07 07:40:11;;;;;;;2.47;2.10;;;23.90;62.00;;;;;;5050650;28;20524;-69
2023/09/07 07:42:37;;;;;;;1.73;1.63;;;23.90;62.00;;;;;;5050694;28;20183;-69
2023/09/07 07:45:03;;;;;;;1.80;1.40;;;23.90;62.00;;;;;;5050529;28;20174;-69
2023/09/07 07:47:28;;;;;;;2.43;1.93;;;23.90;62.00;;;;;;5050631;28;20183;-68
2023/09/07 07:49:54;;;;;;;2.57;1.50;;;23.90;62.00;;;;;;5054055;28;20217;-70
2023/09/07 07:52:19;;;;;;;1.73;1.40;;;23.90;62.00;;;;;;5054613;28;20761;-69
2023/09/07 07:54:45;;;;;;;1.87;1.70;;;23.90;62.00;;;;;;5054649;28;20206;-70
2023/09/07 07:57:11;;;;;;;2.77;1.63;;;23.90;62.00;;;;;;5054909;28;20182;-69
2023/09/07 07:59:37;;;;;;;2.03;1.60;;;23.90;62.00;;;;;;5053922;28;20297;-69
2023/09/07 08:02:03;;;;;;;2.20;1.73;;;23.90;62.00;;;;;;5054542;28;20504;-68
2023/09/07 08:04:32;;;;;;;1.80;1.70;;;23.90;61.90;;;;;;5054499;28;20179;-69
2023/09/07 08:07:03;;;;;;;2.23;1.53;;;23.90;62.00;;;;;;5054407;28;20500;-69
2023/09/07 08:09:31;;;;;;;2.43;1.80;;;23.90;62.80;;;;;;5054354;28;20437;-67
2023/09/07 08:11:57;;;;;;;2.40;2.00;;;23.90;62.00;;;;;;5054146;28;20890;-70
2023/09/07 08:14:26;;;;;;;2.30;1.70;;;23.90;62.00;;;;;;5054186;28;20432;-68
2023/09/07 08:16:53;;;;;;;1.97;1.80;;;23.90;62.00;;;;;;5036124;28;20529;-69
2023/09/07 08:19:19;;;;;;;1.83;1.53;;;23.90;61.90;;;;;;5054061;28;20429;-69
2023/09/07 08:21:46;;;;;;;2.27;1.90;;;23.90;62.00;;;;;;5054070;28;20454;-69
2023/09/07 08:24:12;;;;;;;2.00;1.80;;;23.90;62.00;;;;;;5054027;28;20175;-69
2023/09/07 08:26:37;;;;;;;2.00;1.77;;;23.90;61.90;;;;;;5054219;28;20466;-69
2023/09/07 08:29:05;;;;;;;2.03;1.80;;;23.90;62.00;;;;;;5036202;28;20431;-70
2023/09/07 08:31:33;;;;;;;2.17;1.83;;;23.90;62.00;;;;;;5054249;28;20187;-68
2023/09/07 08:34:03;;;;;;;2.40;1.90;;;23.90;62.00;;;;;;5053918;28;20521;-70
2023/09/07 08:36:33;;;;;;;1.90;1.70;;;23.90;62.00;;;;;;5037050;28;20441;-69
2023/09/07 08:39:05;;;;;;;1.70;1.60;;;23.90;62.00;;;;;;5053812;28;20518;-70
2023/09/07 08:41:37;;;;;;;1.70;1.53;;;24.00;62.10;;;;;;5053975;28;20394;-69
2023/09/07 08:44:04;;;;;;;1.90;1.70;;;23.90;62.00;;;;;;5053903;28;20404;-69
2023/09/07 08:46:31;;;;;;;2.40;2.07;;;23.90;62.00;;;;;;5035788;28;20413;-69
2023/09/07 08:48:59;;;;;;;1.97;1.70;;;23.90;62.00;;;;;;5053635;28;20451;-69
2023/09/07 08:51:27;;;;;;;4.23;2.37;;;23.90;62.00;;;;;;5053739;28;20522;-69
2023/09/07 08:53:53;;;;;;;2.53;1.73;;;24.00;62.20;;;;;;5053604;28;20453;-69
2023/09/07 08:56:21;;;;;;;2.90;2.10;;;23.90;62.10;;;;;;5053577;28;20420;-69
2023/09/07 08:58:49;;;;;;;2.20;2.00;;;23.90;62.10;;;;;;5052999;28;20191;-68
2023/09/07 09:01:15;;;;;;;2.37;2.17;;;23.90;62.10;;;;;;5053517;28;20501;-69
2023/09/07 09:03:42;;;;;;;2.97;2.17;;;24.00;62.30;;;;;;5053503;28;20511;-67
2023/09/07 09:06:08;;;;;;;2.43;2.23;;;23.90;62.10;;;;;;5053441;28;20824;-69
2023/09/07 09:08:44;;;;;;;2.40;2.20;;;24.00;62.30;;;;;;5053295;28;20540;-68
2023/09/07 09:11:10;;;;;;;2.47;2.20;;;24.00;62.30;;;;;;5053345;28;20413;-69
2023/09/07 09:13:36;;;;;;;2.90;2.60;;;24.00;62.20;;;;;;5035180;28;20815;-69
2023/09/07 09:16:01;;;;;;;3.60;2.70;;;24.00;62.20;;;;;;5053543;28;20414;-69
2023/09/07 09:18:28;;;;;;;3.83;2.57;;;24.00;62.30;;;;;;5053166;28;20277;-70
2023/09/07 09:20:55;;;;;;;3.03;2.70;;;24.00;62.20;;;;;;5053395;28;20183;-69
2023/09/07 09:23:21;;;;;;;3.57;2.80;;;24.00;62.20;;;;;;5053160;28;20827;-69
2023/09/07 09:25:49;;;;;;;2.97;2.53;;;24.00;62.20;;;;;;5053098;28;20418;-69
2023/09/07 09:28:15;;;;;;;3.60;3.03;;;24.00;62.20;;;;;;5052949;28;20203;-69
2023/09/07 09:30:44;;;;;;;3.60;2.87;;;24.00;62.10;;;;;;5053185;28;21252;-67
2023/09/07 09:33:10;;;;;;;2.93;2.73;;;24.00;62.10;;;;;;5052815;28;20584;-68
2023/09/07 09:35:38;;;;;;;2.87;2.60;;;24.00;62.00;;;;;;5052775;28;20945;-69
2023/09/07 09:38:04;;;;;;;2.50;2.30;;;24.00;62.00;;;;;;5052943;28;20460;-70
2023/09/07 09:40:36;;;;;;;3.50;3.03;;;24.00;62.00;;;;;;5053033;28;20409;-69
2023/09/07 09:43:03;;;;;;;3.47;2.73;;;24.00;62.00;;;;;;5052830;28;20404;-68
2023/09/07 09:45:29;;;;;;;2.90;2.70;;;24.00;61.90;;;;;;5052950;28;20452;-68
2023/09/07 09:48:00;;;;;;;3.67;2.93;;;24.00;61.90;;;;;;5052516;28;20461;-69
2023/09/07 09:50:26;;;;;;;3.10;2.80;;;24.00;61.90;;;;;;5052555;28;20811;-69
2023/09/07 09:52:56;;;;;;;3.43;2.90;;;24.00;62.00;;;;;;5052445;28;20449;-68
2023/09/07 09:55:22;;;;;;;5.33;2.97;;;24.00;61.90;;;;;;5052537;28;20406;-70
2023/09/07 09:57:49;;;;;;;4.10;3.27;;;24.00;61.90;;;;;;5052380;28;20497;-69
2023/09/07 10:02:51;;;;;;;5.80;3.33;;;24.00;61.90;;;;;;5052359;28;20446;-69
2023/09/07 10:05:18;;;;;;;3.97;3.40;;;24.00;61.90;;;;;;5051972;28;20504;-68
2023/09/07 10:07:44;;;;;;;3.33;3.03;;;24.00;61.90;;;;;;5052029;28;20417;-69
2023/09/07 10:10:14;;;;;;;2.77;2.57;;;24.00;61.90;;;;;;5051952;28;20405;-69
2023/09/07 10:12:45;;;;;;;3.80;3.50;;;24.00;61.90;;;;;;5051577;28;20977;-69
2023/09/07 10:15:24;;;;;;;4.33;3.70;;;24.00;62.00;;;;;;5051937;28;20405;-69
2023/09/07 10:17:52;;;;;;;3.80;3.30;;;24.00;61.90;;;;;;5051835;28;20926;-68
2023/09/07 10:20:18;;;;;;;3.77;3.47;;;24.00;62.00;;;;;;5051973;28;20412;-70
2023/09/07 10:22:45;;;;;;;3.20;2.90;;;24.00;62.00;;;;;;5052190;28;20957;-69
2023/09/07 10:25:21;;;;;;;3.60;3.23;;;24.00;62.00;;;;;;5051876;28;20410;-67
2023/09/07 10:27:47;;;;;;;4.00;3.60;;;24.00;62.00;;;;;;5051832;28;20409;-69
2023/09/07 10:30:13;;;;;;;5.93;3.23;;;24.00;61.90;;;;;;5052052;28;20421;-69
2023/09/07 10:32:43;;;;;;;3.67;3.27;;;24.00;61.90;;;;;;5051719;28;20613;-68
2023/09/07 10:35:21;;;;;;;3.80;3.50;;;24.00;61.90;;;;;;5051792;28;20441;-69
2023/09/07 10:37:48;;;;;;;4.83;3.30;;;24.00;61.90;;;;;;5051684;28;20393;-69
2023/09/07 10:40:19;;;;;;;3.67;3.37;;;24.00;61.90;;;;;;5051820;28;20422;-68
2023/09/07 10:42:45;;;;;;;3.57;3.27;;;24.00;62.00;;;;;;5051545;28;20417;-69
2023/09/07 10:45:13;;;;;;;4.90;3.57;;;24.00;61.90;;;;;;5033564;28;20413;-69
2023/09/07 10:47:45;;;;;;;3.70;3.40;;;24.00;61.90;;;;;;5041343;28;20223;-68
2023/09/07 10:50:14;;;;;;;3.23;2.93;;;24.00;61.90;;;;;;5022874;28;20446;-70
2023/09/07 10:52:41;;;;;;;3.20;2.90;;;24.00;61.90;;;;;;5030949;28;20489;-69
2023/09/07 10:55:08;;;;;;;4.20;3.03;;;24.10;62.00;;;;;;5031303;28;20417;-70
2023/09/07 10:57:43;;;;;;;5.87;3.37;;;24.00;61.80;;;;;;5031239;28;20938;-69
2023/09/07 11:00:10;;;;;;;4.00;3.60;;;24.00;61.80;;;;;;5031322;28;20390;-68
2023/09/07 11:02:42;;;;;;;3.83;3.40;;;24.00;61.80;;;;;;5031588;28;20786;-68
2023/09/07 11:05:08;;;;;;;4.40;3.50;;;24.00;61.80;;;;;;5031167;28;20411;-68
2023/09/07 11:07:34;;;;;;;3.73;3.43;;;24.00;61.70;;;;;;5031188;28;20399;-70
2023/09/07 11:10:03;;;;;;;3.60;3.30;;;24.00;61.70;;;;;;5031198;28;20259;-69
2023/09/07 11:12:29;;;;;;;3.27;2.97;;;24.00;61.70;;;;;;5031146;28;20442;-68
2023/09/07 11:14:56;;;;;;;3.73;3.43;;;24.00;61.70;;;;;;5031081;28;20852;-69
2023/09/07 11:17:27;;;;;;;3.67;3.37;;;24.00;61.70;;;;;;5031094;28;20163;-69
2023/09/07 11:19:53;;;;;;;3.90;3.60;;;24.10;61.70;;;;;;5031408;28;20815;-69
2023/09/07 11:22:19;;;;;;;3.70;3.40;;;24.10;61.70;;;;;;5030811;28;20406;-69
2023/09/07 11:24:45;;;;;;;3.80;3.40;;;24.10;61.50;;;;;;5031052;28;20179;-69
2023/09/07 11:27:11;;;;;;;4.30;3.80;;;24.10;61.60;;;;;;5031008;28;20183;-69
2023/09/07 11:29:37;;;;;;;5.97;4.03;;;24.10;61.60;;;;;;5030849;28;20816;-69
2023/09/07 11:32:10;;;;;;;3.90;3.50;;;24.10;61.60;;;;;;5030840;28;20179;-69
2023/09/07 11:34:46;;;;;;;4.77;4.23;;;24.10;61.50;;;;;;5030903;28;20860;-69
2023/09/07 11:37:11;;;;;;;4.77;3.47;;;24.10;61.40;;;;;;5014831;28;20426;-69
2023/09/07 11:39:37;;;;;;;4.20;3.90;;;24.10;61.40;;;;;;5030756;28;20482;-67
2023/09/07 11:42:03;;;;;;;4.53;4.13;;;24.10;61.40;;;;;;5030776;28;20230;-68
2023/09/07 11:44:28;;;;;;;4.33;3.93;;;24.10;61.40;;;;;;5030779;28;20186;-70
2023/09/07 11:46:54;;;;;;;4.00;3.60;;;24.10;61.40;;;;;;5013015;28;20254;-69
2023/09/07 11:49:21;;;;;;;4.50;4.13;;;24.10;61.30;;;;;;5030651;28;20215;-69
2023/09/07 11:51:47;;;;;;;4.20;3.80;;;24.10;61.30;;;;;;5030673;28;20175;-69
2023/09/07 11:54:13;;;;;;;4.53;4.13;;;24.10;61.30;;;;;;5012743;28;21024;-69
2023/09/07 11:56:42;;;;;;;4.33;4.03;;;24.10;61.40;;;;;;5030651;28;20410;-69
2023/09/07 11:59:09;;;;;;;4.47;3.90;;;24.10;61.30;;;;;;5030467;28;20202;-68
2023/09/07 12:01:35;;;;;;;3.70;3.40;;;24.10;61.30;;;;;;5012925;28;20498;-69
2023/09/07 12:04:00;;;;;;;3.73;3.33;;;24.10;61.30;;;;;;5048258;28;20501;-69
2023/09/07 12:06:26;;;;;;;4.40;4.00;;;24.10;61.30;;;;;;5050438;28;20240;-69
2023/09/07 12:09:06;;;;;;;5.13;4.27;;;24.10;61.20;;;;;;5050240;28;20206;-69
2023/09/07 12:11:32;;;;;;;3.87;3.57;;;24.10;61.20;;;;;;5050501;28;20167;-69
2023/09/07 12:13:58;;;;;;;3.67;3.37;;;24.10;61.30;;;;;;5050294;28;20449;-68
2023/09/07 12:16:26;;;;;;;4.20;3.90;;;24.10;61.30;;;;;;5050405;28;20413;-69
2023/09/07 12:18:51;;;;;;;4.47;4.10;;;24.10;61.20;;;;;;5050279;28;20223;-70
2023/09/07 12:21:17;;;;;;;4.40;4.00;;;24.10;61.20;;;;;;5050313;28;20464;-69
2023/09/07 12:23:43;;;;;;;4.60;4.10;;;24.10;61.20;;;;;;5050288;28;20620;-69
2023/09/07 12:26:08;;;;;;;4.40;4.00;;;24.10;61.20;;;;;;5050247;28;20178;-70
2023/09/07 12:28:34;;;;;;;3.97;3.67;;;24.10;61.20;;;;;;5050215;28;20333;-69
2023/09/07 12:31:00;;;;;;;5.80;4.53;;;24.10;61.20;;;;;;5050456;28;20652;-69
2023/09/07 12:33:25;;;;;;;3.93;3.63;;;24.10;61.20;;;;;;5050242;28;20628;-69
2023/09/07 12:35:51;;;;;;;6.70;4.20;;;24.10;61.20;;;;;;5035708;28;20585;-69
2023/09/07 12:38:18;;;;;;;4.00;3.70;;;24.10;61.20;;;;;;5053888;28;20194;-69
2023/09/07 12:40:46;;;;;;;4.60;3.97;;;24.10;61.20;;;;;;5053857;28;20528;-69
2023/09/07 12:43:11;;;;;;;3.87;3.53;;;24.10;61.20;;;;;;5053809;28;20429;-70
2023/09/07 12:45:37;;;;;;;4.60;4.20;;;24.10;61.20;;;;;;5053846;28;20830;-68
2023/09/07 12:48:03;;;;;;;4.20;3.90;;;24.10;61.10;;;;;;5053935;28;20679;-69